Latest Weather Observations for Omeo

IDV60801

Issued at 8:02 pm EST Thursday 28 May 2015 (issued every 30 minutes, with the page automatically refreshed every 10 minutes)

About weather observations | Map of weather stations | Latest weather observations for VIC | Other Formats
Station Details ID: 083090 Name: OMEO Lat: -37.10 Lon: 147.60 Height: 689.8 m
Data from the previous 72 hours. | See also: Recent months at Omeo
Date/Time
EST
Temp
°C
App
Temp
°C
Dew
Point
Rel
Hum
%
Delta-T
°C
Wind Press
QNH
hPa
Press
MSL
hPa
Rain
since 9 am
mm
Dir
 
Spd
km/h
Gust
km/h
Spd
kts
Gust
kts
28/08:00pm 10.5 6.8 9.3 92 0.6 NNW 19 32 10 17 1017.1 1017.3 0.0
28/07:30pm 10.5 7.0 8.8 89 0.9 NNW 17 28 9 15 1017.2 1017.4 0.0
28/07:00pm 10.9 6.9 8.1 83 1.4 NNW 19 24 10 13 1017.1 1017.3 0.0
28/06:30pm 11.2 6.9 7.9 80 1.7 N 20 30 11 16 1016.9 1017.1 0.0
28/06:00pm 11.3 7.7 8.3 82 1.5 N 17 26 9 14 1016.7 1016.9 0.0
28/05:30pm 11.7 7.5 8.2 79 1.8 NNW 20 28 11 15 1016.8 1017.0 0.0
28/05:00pm 11.7 7.6 8.0 78 1.9 NNW 19 30 10 16 1016.3 1016.6 0.0
28/04:30pm 11.8 7.5 7.9 77 2.0 NNW 20 30 11 16 1016.6 1016.8 0.0
28/04:00pm 12.0 7.7 7.9 76 2.1 NNW 20 30 11 16 1017.0 1017.2 0.0
28/03:30pm 12.3 8.1 8.2 76 2.1 NNW 20 32 11 17 1016.9 1017.1 0.0
28/03:00pm 12.8 7.3 7.7 71 2.6 N 26 39 14 21 1017.0 1017.2 0.0
28/02:30pm 13.2 7.3 7.6 69 2.8 N 28 46 15 25 1017.0 1017.2 0.0
28/02:29pm 13.1 7.2 7.5 69 2.8 N 28 46 15 25 1017.0 1017.2 0.0
28/02:00pm 14.1 9.0 7.6 65 3.3 NNW 24 37 13 20 1017.4 1017.7 0.0
28/01:30pm 13.1 7.4 6.9 66 3.1 N 26 39 14 21 1017.5 1017.8 0.0
28/01:00pm 13.7 7.4 7.2 65 3.3 N 30 43 16 23 1018.2 1018.4 0.0
28/12:30pm 14.1 9.6 8.5 69 2.9 N 22 35 12 19 1018.6 1018.8 0.0
28/12:00pm 13.4 9.3 8.5 72 2.5 N 20 28 11 15 1019.2 1019.5 0.0
28/11:30am 12.6 8.3 7.9 73 2.4 N 20 28 11 15 1019.8 1020.0 0.0
28/11:00am 12.4 8.4 8.1 75 2.2 N 19 32 10 17 1020.2 1020.5 0.0
28/10:00am 11.1 8.5 9.2 88 1.0 NNW 13 19 7 10 1020.7 1021.0 0.0
28/09:30am 10.0 7.3 8.9 93 0.6 N 13 20 7 11 1020.9 1021.2 0.0
28/09:00am 9.4 5.3 8.6 95 0.4 N 20 33 11 18 1021.0 1021.3 0.2
28/08:30am 9.0 5.4 8.5 97 0.3 N 17 24 9 13 1021.2 1021.5 0.2
28/08:00am 8.7 5.8 8.3 97 0.2 N 13 20 7 11 1021.0 1021.3 0.2
28/07:30am 8.7 5.5 8.3 97 0.2 NNW 15 19 8 10 1020.9 1021.2 0.2
28/07:00am 8.5 5.6 8.2 98 0.1 NNW 13 20 7 11 1020.7 1021.0 0.2
28/06:30am 8.3 5.4 8.0 98 0.1 N 13 19 7 10 1020.7 1021.0 0.0
28/06:00am 8.5 5.2 8.2 98 0.1 NNW 15 19 8 10 1020.4 1020.7 0.0
28/05:30am 8.0 5.0 7.7 98 0.1 NNW 13 17 7 9 1020.4 1020.7 0.0
28/05:00am 7.1 4.3 6.8 98 0.1 NNW 11 15 6 8 1020.4 1020.7 0.0
28/04:30am 6.4 3.8 6.1 98 0.1 NNW 9 15 5 8 1020.4 1020.7 0.0
28/04:00am 4.4 1.8 4.0 97 0.2 NW 7 13 4 7 1020.5 1020.8 0.0
28/03:30am 6.8 4.7 6.5 98 0.1 NNW 7 9 4 5 1020.5 1020.8 0.0
28/03:00am 7.0 3.8 6.7 98 0.1 NNW 13 17 7 9 1020.8 1021.1 0.0
28/02:30am 6.9 4.4 6.6 98 0.1 NW 9 17 5 9 1021.0 1021.3 0.0
28/02:00am 6.9 4.0 6.6 98 0.1 NNW 11 17 6 9 1021.0 1021.3 0.0
28/01:30am 7.0 3.4 6.7 98 0.1 NNW 15 19 8 10 1021.3 1021.6 0.0
28/01:00am 6.6 2.9 6.2 97 0.2 NNW 15 22 8 12 1021.4 1021.7 0.0
28/12:30am 6.5 2.8 6.1 97 0.2 N 15 20 8 11 1021.7 1022.0 0.0
28/12:00am 6.7 3.4 6.3 97 0.2 N 13 15 7 8 1021.8 1022.1 0.0
 
Date/Time
EST
Temp
°C
App
Temp
°C
Dew
Point
Rel
Hum
%
Delta-T
°C
Wind Press
QNH
hPa
Press
MSL
hPa
Rain
since 9 am
mm
Dir
 
Spd
km/h
Gust
km/h
Spd
kts
Gust
kts
27/11:30pm 6.6 3.3 6.2 97 0.2 NNW 13 19 7 10 1021.9 1022.2 0.0
27/11:00pm 6.2 3.2 5.8 97 0.2 NNW 11 15 6 8 1022.0 1022.3 0.0
27/10:30pm 6.2 3.1 5.6 96 0.3 NNW 11 15 6 8 1022.0 1022.3 0.0
27/10:00pm 6.5 3.5 5.9 96 0.3 NNW 11 15 6 8 1022.2 1022.5 0.0
27/09:30pm 6.4 3.3 5.7 95 0.3 NNW 11 13 6 7 1022.2 1022.5 0.0
27/09:00pm 6.8 3.4 5.9 94 0.4 NNW 13 17 7 9 1022.3 1022.6 0.0
27/08:30pm 6.9 3.9 6.0 94 0.4 NNW 11 17 6 9 1022.3 1022.6 0.0
27/08:00pm 7.5 3.9 6.6 94 0.4 NNW 15 20 8 11 1022.3 1022.6 0.0
27/07:30pm 7.1 3.7 6.0 93 0.5 NNW 13 17 7 9 1022.2 1022.5 0.0
27/07:00pm 7.4 3.7 6.2 92 0.6 NNW 15 20 8 11 1022.2 1022.5 0.0
27/06:30pm 7.6 3.5 6.2 91 0.7 N 17 24 9 13 1021.9 1022.2 0.0
27/06:00pm 8.0 4.7 6.5 90 0.7 N 13 17 7 9 1021.8 1022.1 0.0
27/05:30pm 7.9 4.6 6.2 89 0.8 N 13 19 7 10 1021.4 1021.7 0.0
27/05:00pm 8.4 4.3 6.4 87 1.0 N 17 22 9 12 1021.0 1021.3 0.0
27/04:30pm 9.3 5.2 6.4 82 1.4 N 17 24 9 13 1020.9 1021.2 0.0
27/04:00pm 10.6 5.6 6.6 76 2.0 N 22 32 12 17 1020.7 1021.0 0.0
27/03:30pm 11.7 7.2 7.0 73 2.3 N 20 32 11 17 1020.6 1020.9 0.0
27/03:00pm 10.8 6.2 6.7 76 2.0 N 20 26 11 14 1021.0 1021.3 0.0
27/02:30pm 11.4 6.8 6.7 73 2.3 N 20 32 11 17 1020.7 1021.0 0.0
27/02:00pm 11.1 6.6 7.0 76 2.0 N 20 32 11 17 1020.8 1021.1 0.0
27/01:30pm 11.4 5.7 6.7 73 2.3 N 26 33 14 18 1021.2 1021.5 0.0
27/01:00pm 11.1 5.7 6.3 72 2.3 N 24 33 13 18 1021.5 1021.8 0.0
27/12:30pm 11.8 7.5 7.1 73 2.3 N 19 30 10 16 1022.0 1022.3 0.0
27/12:00pm 10.4 5.8 6.5 77 1.9 N 20 26 11 14 1022.4 1022.8 0.0
27/11:30am 9.1 5.0 6.4 83 1.3 N 17 24 9 13 1023.1 1023.4 0.0
27/11:00am 8.9 4.7 5.5 79 1.6 NNW 17 26 9 14 1023.4 1023.7 0.0
27/10:30am 8.7 4.4 5.4 80 1.5 N 17 24 9 13 1023.5 1023.8 0.0
27/10:00am 7.8 3.8 4.7 81 1.4 NNW 15 19 8 10 1023.8 1024.2 0.0
27/09:30am 7.2 3.1 4.3 82 1.3 NNW 15 19 8 10 1023.8 1024.2 0.0
27/09:00am 6.8 1.2 3.6 80 1.4 N 22 28 12 15 1023.6 1024.0 0.2
27/08:30am 6.6 2.1 4.3 85 1.0 NNW 17 20 9 11 1023.8 1024.2 0.2
27/08:00am 5.8 1.6 3.8 87 0.9 N 15 24 8 13 1023.9 1024.3 0.2
27/07:30am 5.7 2.2 3.7 87 0.9 N 11 15 6 8 1023.7 1024.1 0.2
27/07:00am 5.2 2.1 3.4 88 0.8 NNW 9 13 5 7 1023.7 1024.1 0.2
27/06:30am 5.7 2.3 3.9 88 0.8 NNW 11 15 6 8 1023.5 1023.8 0.2
27/06:00am 5.3 2.6 3.5 88 0.8 NNW 7 15 4 8 1023.5 1023.8 0.2
27/05:30am 5.6 2.5 3.6 87 0.9 NNW 9 13 5 7 1023.3 1023.6 0.2
27/05:00am 6.0 3.0 4.0 87 0.9 N 9 15 5 8 1023.2 1023.5 0.2
27/04:30am 6.1 3.1 4.1 87 0.9 N 9 17 5 9 1023.2 1023.5 0.2
27/04:00am 5.6 2.5 3.8 88 0.8 N 9 11 5 6 1023.1 1023.4 0.2
27/03:30am 6.1 2.7 3.9 86 1.0 N 11 17 6 9 1023.2 1023.5 0.2
27/03:00am 6.2 2.8 4.2 87 0.9 N 11 17 6 9 1023.6 1024.0 0.2
27/02:30am 6.1 3.1 3.9 86 1.0 N 9 13 5 7 1023.9 1024.3 0.2
27/02:00am 5.9 2.4 3.6 85 1.0 N 11 17 6 9 1024.0 1024.4 0.2
27/01:30am 5.8 2.7 3.5 85 1.0 N 9 13 5 7 1024.3 1024.6 0.2
27/01:00am 5.5 2.7 3.2 85 1.0 NNW 7 9 4 5 1024.6 1024.9 0.2
27/12:30am 5.4 2.6 3.1 85 1.0 N 7 11 4 6 1024.7 1025.0 0.2
27/12:00am 5.3 2.6 2.7 83 1.1 NNW 6 11 3 6 1024.8 1025.1 0.2
 
Date/Time
EST
Temp
°C
App
Temp
°C
Dew
Point
Rel
Hum
%
Delta-T
°C
Wind Press
QNH
hPa
Press
MSL
hPa
Rain
since 9 am
mm
Dir
 
Spd
km/h
Gust
km/h
Spd
kts
Gust
kts
26/11:30pm 5.2 2.3 2.6 83 1.1 WNW 7 11 4 6 1024.9 1025.3 0.2
26/11:00pm 5.1 2.8 2.5 83 1.1 NNE 4 7 2 4 1025.0 1025.4 0.2
26/10:30pm 5.2 2.5 2.4 82 1.2 WSW 6 7 3 4 1025.0 1025.4 0.2
26/10:00pm 5.6 2.9 2.4 80 1.4 NNW 6 9 3 5 1025.2 1025.6 0.2
26/09:30pm 5.1 3.5 2.3 82 1.2 CALM 0 0 0 0 1025.6 1026.0 0.2
26/09:00pm 5.1 2.3 2.1 81 1.3 WSW 6 9 3 5 1025.4 1025.8 0.2
26/08:30pm 5.3 2.1 2.8 84 1.1 SSE 9 11 5 6 1025.4 1025.8 0.2
26/08:00pm 5.1 3.4 2.1 81 1.3 CALM 0 0 0 0 1026.3 1026.7 0.2
26/07:30pm 5.7 3.0 2.4 79 1.4 SSW 6 7 3 4 1026.2 1026.6 0.2
26/07:00pm 6.2 3.8 2.3 76 1.7 WSW 4 9 2 5 1026.2 1026.6 0.2
26/06:30pm 6.2 3.3 1.7 73 1.9 SE 6 9 3 5 1026.2 1026.6 0.2
26/06:00pm 6.9 4.8 1.6 69 2.2 SW 2 7 1 4 1026.1 1026.4 0.2
26/05:30pm 6.8 3.9 1.3 68 2.3 SE 6 7 3 4 1026.1 1026.4 0.2
26/05:00pm 8.0 5.7 0.7 60 3.0 SSW 2 7 1 4 1026.0 1026.3 0.2
26/04:30pm 7.9 6.1 1.3 63 2.8 CALM 0 0 0 0 1025.9 1026.2 0.2
26/04:00pm 8.3 5.7 1.0 60 3.1 SSE 4 6 2 3 1025.6 1026.0 0.2
26/03:30pm 9.6 7.6 0.0 51 4.0 CALM 0 7 0 4 1025.9 1026.2 0.2
26/03:00pm 10.9 7.2 -2.8 38 5.4 N 7 9 4 5 1025.7 1026.1 0.2
26/02:30pm 12.3 9.1 -0.6 41 5.5 NNW 6 9 3 5 1026.1 1026.4 0.2
26/02:00pm 11.5 7.6 -1.6 40 5.3 N 9 11 5 6 1026.3 1026.7 0.2
26/01:30pm 11.2 7.9 -1.2 42 5.1 N 6 9 3 5 1026.5 1026.9 0.0
26/01:00pm 10.2 6.4 -0.6 47 4.4 NNW 9 13 5 7 1026.8 1027.2 0.0
26/12:30pm 9.6 6.3 0.2 52 3.9 NNW 7 11 4 6 1027.5 1027.9 0.0
26/12:00pm 7.5 3.3 -1.2 54 3.4 NNW 11 15 6 8 1028.1 1028.5 0.0
26/11:30am 6.0 2.1 -1.4 59 2.9 NNW 9 13 5 7 1028.8 1029.3 0.0
26/11:00am 4.8 0.7 -0.4 69 2.0 NNW 11 13 6 7 1029.6 1030.0 0.0
26/10:30am 3.1 -0.6 -0.2 79 1.3 NNW 9 13 5 7 1030.0 1030.5 0.0
26/10:00am 1.1 -2.4 -1.1 85 0.8 NNW 7 11 4 6 1030.0 1030.5 0.0
26/09:30am -0.5 -3.5 -1.8 91 0.4 NNW 4 7 2 4 1030.3 1030.8 0.0
26/09:00am -2.0 -5.7 -2.7 95 0.1 NNW 7 9 4 5 1030.5 1030.9 0.0
26/08:30am -2.9 -6.5 -3.4 96 0.0 N 6 9 3 5 1030.8 1031.2 0.0
26/08:00am -4.9 -7.5 -5.4 96 0.0 CALM 0 0 0 0 1030.7 1031.1 0.0
26/07:30am -5.8 -8.6 -6.5 95 0.0 CALM 0 0 0 0 1030.6 1031.0 0.0
26/07:00am -5.2 -7.9 -5.9 95 0.0 CALM 0 0 0 0 1030.2 1030.7 0.0
26/06:30am -5.7 -8.4 -6.4 95 0.0 CALM 0 0 0 0 1029.9 1030.4 0.0
26/06:00am -5.3 -8.0 -6.0 95 0.0 CALM 0 0 0 0 1029.7 1030.1 0.0
26/05:30am -5.3 -8.0 -6.0 95 0.0 CALM 0 0 0 0 1029.7 1030.1 0.0
26/05:00am -4.8 -7.5 -5.5 95 0.0 CALM 0 0 0 0 1029.8 1030.3 0.0
26/04:30am -3.9 -7.6 -4.4 96 0.0 WNW 6 7 3 4 1030.0 1030.5 0.0
26/04:00am -3.7 -7.4 -4.2 96 0.0 NW 6 7 3 4 1029.9 1030.4 0.0
26/03:30am -3.4 -7.0 -3.9 96 0.0 NW 6 7 3 4 1029.8 1030.3 0.0
26/03:00am -3.4 -7.0 -3.9 96 0.0 NW 6 7 3 4 1029.9 1030.4 0.0
26/02:30am -3.8 -7.5 -4.3 96 0.0 W 6 9 3 5 1030.2 1030.7 0.0
26/02:00am -3.1 -5.6 -3.6 96 0.0 CALM 0 0 0 0 1030.3 1030.8 0.0
26/01:30am -3.3 -5.8 -4.0 95 0.1 CALM 0 0 0 0 1030.5 1030.9 0.0
26/01:00am -2.8 -5.6 -3.5 95 0.1 W 2 7 1 4 1030.5 1030.9 0.0
26/12:30am -2.5 -5.3 -3.2 95 0.1 W 2 6 1 3 1030.5 1030.9 0.0
26/12:00am -1.8 -5.4 -2.4 96 0.1 WSW 7 7 4 4 1030.5 1030.9 0.0
 
Date/Time
EST
Temp
°C
App
Temp
°C
Dew
Point
Rel
Hum
%
Delta-T
°C
Wind Press
QNH
hPa
Press
MSL
hPa
Rain
since 9 am
mm
Dir
 
Spd
km/h
Gust
km/h
Spd
kts
Gust
kts
25/11:30pm -2.4 -4.8 -3.1 95 0.1 CALM 0 0 0 0 1030.8 1031.2 0.0
25/11:00pm -1.8 -4.5 -2.5 95 0.2 SW 2 9 1 5 1030.8 1031.2 0.0
25/10:30pm -1.3 -3.6 -2.1 94 0.2 CALM 0 0 0 0 1031.0 1031.4 0.0
25/10:00pm -1.2 -3.5 -2.0 94 0.2 CALM 0 0 0 0 1031.1 1031.6 0.0
25/09:30pm -0.8 -3.0 -1.8 93 0.3 CALM 0 0 0 0 1031.1 1031.6 0.0
25/09:00pm 0.2 -3.0 -0.8 93 0.4 WSW 6 7 3 4 1030.9 1031.3 0.0
25/08:30pm 0.1 -2.1 -1.2 91 0.5 CALM 0 0 0 0 1030.9 1031.3 0.0

Other Formats:

Comma delimited format used in spreadsheet applications
http://www.bom.gov.au/fwo/IDV60801/IDV60801.94908.axf

JavaScript Object Notation format (JSON) in row-major order
http://www.bom.gov.au/fwo/IDV60801/IDV60801.94908.json